Time;durP1;ratioP1;P1;durP2;ratioP2;P2;SDS_P1;SDS_P2;PMS_P1;PMS_P2;Temp;Humidity;BMP_temperature;BMP_pressure;BME280_temperature;BME280_humidity;BME280_pressure;Samples;Min_cycle;Max_cycle;Signal;HPM_P1;HPM_P2
2023/09/15 00:00:40;;;;;;;;;;;17.50;99.90;;;;;;5001052;28;19920;-65
2023/09/15 00:03:06;;;;;;;;;;;17.60;99.90;;;;;;4998779;28;19909;-65
2023/09/15 00:05:33;;;;;;;;;;;17.60;99.90;;;;;;5001788;28;19913;-65
2023/09/15 00:08:04;;;;;;;;;;;17.60;99.90;;;;;;4997742;28;19956;-65
2023/09/15 00:10:38;;;;;;;;;;;17.60;99.90;;;;;;5000135;28;19916;-65
2023/09/15 00:13:04;;;;;;;;;;;17.70;99.90;;;;;;4998804;28;19913;-65
2023/09/15 00:15:30;;;;;;;;;;;17.80;99.90;;;;;;5002354;28;19964;-65
2023/09/15 00:17:56;;;;;;;;;;;17.80;99.90;;;;;;5000943;28;19913;-65
2023/09/15 00:20:22;;;;;;;;;;;17.80;99.90;;;;;;4996518;28;19905;-65
2023/09/15 00:22:50;;;;;;;;;;;17.80;99.90;;;;;;5001184;28;19913;-65
2023/09/15 00:25:19;;;;;;;;;;;17.80;99.90;;;;;;5001065;28;19920;-65
2023/09/15 00:27:45;;;;;;;;;;;17.80;99.90;;;;;;5001693;28;19905;-65
2023/09/15 00:30:12;;;;;;;;;;;17.80;99.90;;;;;;4994968;28;19944;-65
2023/09/15 00:32:39;;;;;;;;;;;17.70;99.90;;;;;;4999452;28;19924;-65
2023/09/15 00:35:05;;;;;;;;;;;17.60;99.90;;;;;;5002510;28;19960;-65
2023/09/15 00:37:30;;;;;;;;;;;17.60;99.90;;;;;;5000299;28;20003;-65
2023/09/15 00:39:57;;;;;;;;;;;17.60;99.90;;;;;;4998627;28;20407;-66
2023/09/15 00:42:23;;;;;;;;;;;17.50;99.90;;;;;;4999895;28;19936;-66
2023/09/15 00:44:49;;;;;;;;;;;17.50;99.90;;;;;;4999096;28;20369;-65
2023/09/15 00:47:15;;;;;;;;;;;17.50;99.90;;;;;;4996141;28;19905;-65
2023/09/15 00:49:41;;;;;;;;;;;17.40;99.90;;;;;;4984668;28;21378;-65
2023/09/15 00:52:07;;;;;;;;;;;17.40;99.90;;;;;;5001402;28;19920;-65
2023/09/15 00:54:33;;;;;;;;;;;17.40;99.90;;;;;;5001053;28;19905;-65
2023/09/15 00:56:59;;;;;;;;;;;17.40;99.90;;;;;;5000640;28;20376;-65
2023/09/15 00:59:25;;;;;;;;;;;17.40;99.90;;;;;;4999468;28;19913;-65
2023/09/15 01:01:52;;;;;;;;;;;17.40;99.90;;;;;;4999370;28;20639;-65
2023/09/15 01:04:18;;;;;;;;;;;17.40;99.90;;;;;;4999394;28;19913;-65
2023/09/15 01:06:45;;;;;;;;;;;17.30;99.90;;;;;;5000248;28;20480;-65
2023/09/15 01:09:11;;;;;;;;;;;17.30;99.90;;;;;;4983151;28;19969;-65
2023/09/15 01:11:36;;;;;;;;;;;17.40;99.90;;;;;;5000447;28;19917;-65
2023/09/15 01:14:02;;;;;;;;;;;17.40;99.90;;;;;;4981744;28;19913;-65
2023/09/15 01:16:37;;;;;;;;;;;17.40;99.90;;;;;;4996458;28;20253;-65
2023/09/15 01:19:03;;;;;;;;;;;17.40;99.90;;;;;;4997524;28;20454;-65
2023/09/15 01:21:42;;;;;;;;;;;17.40;99.90;;;;;;4995689;28;19916;-64
2023/09/15 01:24:20;;;;;;;;;;;17.30;99.90;;;;;;4981501;28;20547;-66
2023/09/15 01:27:05;;;;;;;;;;;17.30;99.90;;;;;;4981165;28;19971;-65
2023/09/15 01:29:31;;;;;;;;;;;17.30;99.90;;;;;;4998157;28;20533;-65
2023/09/15 01:31:57;;;;;;;;;;;17.30;99.90;;;;;;4978654;28;20003;-66
2023/09/15 01:34:22;;;;;;;;;;;17.20;99.90;;;;;;4982591;28;20012;-65
2023/09/15 01:36:47;;;;;;;;;;;17.10;99.90;;;;;;4998675;28;19925;-66
2023/09/15 01:39:13;;;;;;;;;;;17.10;99.90;;;;;;4995437;28;19905;-65
2023/09/15 01:41:39;;;;;;;;;;;17.10;99.90;;;;;;4999787;28;20044;-65
2023/09/15 01:44:05;;;;;;;;;;;17.10;99.90;;;;;;4995365;28;20331;-65
2023/09/15 01:46:31;;;;;;;;;;;17.00;99.90;;;;;;4999989;28;19913;-65
2023/09/15 01:48:57;;;;;;;;;;;17.00;99.90;;;;;;4999989;28;19917;-65
2023/09/15 01:51:23;;;;;;;;;;;17.00;99.90;;;;;;4995086;28;20432;-65
2023/09/15 01:53:51;;;;;;;;;;;16.90;99.90;;;;;;5001458;28;20372;-65
2023/09/15 01:56:17;;;;;;;;;;;16.90;99.90;;;;;;4997532;28;21304;-65
2023/09/15 01:58:43;;;;;;;;;;;16.90;99.90;;;;;;4998748;28;20313;-65
2023/09/15 02:01:08;;;;;;;;;;;16.90;99.90;;;;;;4998903;28;19919;-65
2023/09/15 02:03:34;;;;;;;;;;;16.90;99.90;;;;;;4976180;28;19906;-65
2023/09/15 02:06:04;;;;;;;;;;;17.00;99.90;;;;;;4999611;28;20012;-66
2023/09/15 02:08:29;;;;;;;;;;;17.00;99.90;;;;;;4981266;28;19920;-65
2023/09/15 02:10:55;;;;;;;;;;;16.90;99.90;;;;;;4998789;28;19913;-65
2023/09/15 02:13:20;;;;;;;;;;;16.90;99.90;;;;;;4998050;28;19905;-65
2023/09/15 02:15:46;;;;;;;;;;;16.90;99.90;;;;;;4999338;28;20539;-65
2023/09/15 02:18:12;;;;;;;;;;;17.00;99.90;;;;;;4999910;28;20011;-65
2023/09/15 02:20:37;;;;;;;;;;;16.90;99.90;;;;;;4977018;28;19932;-65
2023/09/15 02:23:03;;;;;;;;;;;16.90;99.90;;;;;;4998911;28;19971;-65
2023/09/15 02:25:30;;;;;;;;;;;16.80;99.90;;;;;;4999394;28;19917;-65
2023/09/15 02:27:57;;;;;;;;;;;16.70;99.90;;;;;;4999308;28;20015;-65
2023/09/15 02:30:22;;;;;;;;;;;16.70;99.90;;;;;;4997870;28;19960;-66
2023/09/15 02:32:48;;;;;;;;;;;16.60;99.90;;;;;;5005152;28;19917;-65
2023/09/15 02:35:13;;;;;;;;;;;16.60;99.90;;;;;;5006690;28;19912;-65
2023/09/15 02:37:39;;;;;;;;;;;16.60;99.90;;;;;;4984498;28;20022;-65
2023/09/15 02:40:05;;;;;;;;;;;16.60;99.90;;;;;;4989681;28;20438;-65
2023/09/15 02:42:30;;;;;;;;;;;16.60;99.90;;;;;;4984202;28;20004;-65
2023/09/15 02:44:56;;;;;;;;;;;16.60;99.90;;;;;;5005737;28;20403;-65
2023/09/15 02:47:22;;;;;;;;;;;16.60;99.90;;;;;;5005288;28;19909;-65
2023/09/15 02:49:47;;;;;;;;;;;16.50;99.90;;;;;;5004898;28;20067;-65
2023/09/15 02:52:13;;;;;;;;;;;16.50;99.90;;;;;;5002469;28;19905;-65
2023/09/15 02:54:39;;;;;;;;;;;16.50;99.90;;;;;;5001251;28;19913;-65
2023/09/15 02:57:04;;;;;;;;;;;16.50;99.90;;;;;;5005952;28;20364;-65
2023/09/15 02:59:30;;;;;;;;;;;16.40;99.90;;;;;;5000977;28;19909;-65
2023/09/15 03:01:55;;;;;;;;;;;16.40;99.90;;;;;;5003120;28;19910;-66
2023/09/15 03:04:21;;;;;;;;;;;16.40;99.90;;;;;;5007972;28;19952;-65
2023/09/15 03:06:47;;;;;;;;;;;16.30;99.90;;;;;;5003960;28;19975;-65
2023/09/15 03:09:12;;;;;;;;;;;16.30;99.90;;;;;;5005051;28;20359;-65
2023/09/15 03:11:38;;;;;;;;;;;16.30;99.90;;;;;;5005244;28;19920;-65
2023/09/15 03:14:04;;;;;;;;;;;16.20;99.90;;;;;;5004924;28;19937;-65
2023/09/15 03:16:29;;;;;;;;;;;16.10;99.90;;;;;;5009843;28;19953;-65
2023/09/15 03:18:55;;;;;;;;;;;16.10;99.90;;;;;;5005631;28;19932;-65
2023/09/15 03:21:20;;;;;;;;;;;16.10;99.90;;;;;;5001015;28;20276;-66
2023/09/15 03:23:49;;;;;;;;;;;16.10;99.90;;;;;;4987013;28;20512;-65
2023/09/15 03:26:14;;;;;;;;;;;16.00;99.90;;;;;;5003033;28;19971;-65
2023/09/15 03:28:40;;;;;;;;;;;16.00;99.90;;;;;;5004290;28;19916;-65
2023/09/15 03:31:05;;;;;;;;;;;16.00;99.90;;;;;;5004964;28;20654;-66
2023/09/15 03:33:31;;;;;;;;;;;16.00;99.90;;;;;;4986598;28;19909;-65
2023/09/15 03:35:57;;;;;;;;;;;15.90;99.90;;;;;;5005122;28;20312;-65
2023/09/15 03:38:22;;;;;;;;;;;15.90;99.90;;;;;;4987412;28;19916;-65
2023/09/15 03:40:48;;;;;;;;;;;15.90;99.90;;;;;;5004543;28;19996;-65
2023/09/15 03:43:14;;;;;;;;;;;16.00;99.90;;;;;;4982598;28;19915;-66
2023/09/15 03:45:42;;;;;;;;;;;15.90;99.90;;;;;;5001222;28;20068;-65
2023/09/15 03:48:07;;;;;;;;;;;15.90;99.90;;;;;;5001990;28;19967;-65
2023/09/15 03:50:34;;;;;;;;;;;15.90;99.90;;;;;;4986592;28;20395;-65
2023/09/15 03:52:59;;;;;;;;;;;15.80;99.90;;;;;;4995191;28;19938;-65
2023/09/15 03:55:26;;;;;;;;;;;15.80;99.90;;;;;;5001826;28;19956;-65
2023/09/15 03:57:52;;;;;;;;;;;15.80;99.90;;;;;;5001155;28;19916;-65
2023/09/15 04:00:18;;;;;;;;;;;15.80;99.90;;;;;;4999529;28;20402;-65
2023/09/15 04:02:44;;;;;;;;;;;15.80;99.90;;;;;;4998082;28;20000;-65
2023/09/15 04:05:10;;;;;;;;;;;15.80;99.90;;;;;;5001431;28;20160;-65
2023/09/15 04:07:37;;;;;;;;;;;15.80;99.90;;;;;;5000037;28;19910;-65
2023/09/15 04:10:03;;;;;;;;;;;15.80;99.90;;;;;;5001401;28;19909;-65
2023/09/15 04:12:30;;;;;;;;;;;15.80;99.90;;;;;;4995037;28;19928;-66
2023/09/15 04:14:55;;;;;;;;;;;15.80;99.90;;;;;;5000017;28;19912;-66
2023/09/15 04:17:21;;;;;;;;;;;15.80;99.90;;;;;;4999969;28;20585;-66
2023/09/15 04:19:46;;;;;;;;;;;15.80;99.90;;;;;;4985358;28;19913;-66
2023/09/15 04:22:12;;;;;;;;;;;15.70;99.90;;;;;;4996726;28;19909;-66
2023/09/15 04:24:37;;;;;;;;;;;15.70;99.90;;;;;;5000978;28;20435;-66
2023/09/15 04:27:03;;;;;;;;;;;15.70;99.90;;;;;;4996544;28;20312;-66
2023/09/15 04:29:29;;;;;;;;;;;15.70;99.90;;;;;;5000714;28;19959;-66
2023/09/15 04:31:54;;;;;;;;;;;15.70;99.90;;;;;;5000404;28;20012;-65
2023/09/15 04:34:20;;;;;;;;;;;15.70;99.90;;;;;;4981374;28;19913;-66
2023/09/15 04:36:45;;;;;;;;;;;15.60;99.90;;;;;;5002748;28;20358;-65
2023/09/15 04:39:11;;;;;;;;;;;15.60;99.90;;;;;;4982941;28;19909;-65
2023/09/15 04:41:39;;;;;;;;;;;15.60;99.90;;;;;;4982553;28;20459;-65
2023/09/15 04:44:05;;;;;;;;;;;15.60;99.90;;;;;;4996196;28;19913;-66
2023/09/15 04:46:31;;;;;;;;;;;15.60;99.90;;;;;;4999707;28;20525;-67
2023/09/15 04:48:56;;;;;;;;;;;15.70;99.90;;;;;;5000442;28;20130;-68
2023/09/15 04:51:22;;;;;;;;;;;15.70;99.90;;;;;;5001069;28;19916;-67
2023/09/15 04:53:47;;;;;;;;;;;15.70;99.90;;;;;;4999541;28;20088;-68
2023/09/15 04:56:13;;;;;;;;;;;15.80;99.90;;;;;;4978876;28;20264;-66
2023/09/15 04:58:38;;;;;;;;;;;15.80;99.90;;;;;;4999842;28;19978;-66
2023/09/15 05:01:04;;;;;;;;;;;15.90;99.90;;;;;;4978860;28;20257;-66
2023/09/15 05:03:29;;;;;;;;;;;16.10;99.90;;;;;;4999969;28;19906;-66
2023/09/15 05:05:55;;;;;;;;;;;16.50;99.90;;;;;;5000528;28;19913;-66
2023/09/15 05:08:22;;;;;;;;;;;16.90;99.90;;;;;;4999595;28;19905;-66
2023/09/15 05:10:48;;;;;;;;;;;17.30;99.90;;;;;;4998200;28;19913;-66
2023/09/15 05:13:14;;;;;;;;;;;17.60;99.90;;;;;;4998051;28;19911;-66
2023/09/15 05:15:40;;;;;;;;;;;18.10;99.90;;;;;;4997600;28;20478;-65
2023/09/15 05:18:05;;;;;;;;;;;18.50;99.90;;;;;;4999402;28;19939;-65
2023/09/15 05:20:31;;;;;;;;;;;18.90;99.90;;;;;;5000631;28;20012;-65
2023/09/15 05:22:56;;;;;;;;;;;19.40;99.90;;;;;;4977454;28;19914;-66
2023/09/15 05:25:22;;;;;;;;;;;20.00;99.90;;;;;;4999600;28;19914;-62
2023/09/15 05:27:48;;;;;;;;;;;20.40;99.90;;;;;;5005204;28;19960;-62
2023/09/15 05:30:15;;;;;;;;;;;20.60;99.90;;;;;;4999214;28;19999;-64
2023/09/15 05:32:40;;;;;;;;;;;21.10;99.90;;;;;;4995016;28;20291;-61
2023/09/15 05:35:08;;;;;;;;;;;21.20;99.90;;;;;;4983772;28;19917;-61
2023/09/15 05:37:34;;;;;;;;;;;21.70;99.90;;;;;;4994920;28;20464;-61
2023/09/15 05:39:59;;;;;;;;;;;22.10;99.90;;;;;;4999243;28;19921;-61
2023/09/15 05:42:25;;;;;;;;;;;22.70;99.90;;;;;;4994153;28;20272;-61
2023/09/15 05:44:54;;;;;;;;;;;22.90;99.90;;;;;;5000561;28;20351;-62
2023/09/15 05:47:20;;;;;;;;;;;22.70;99.90;;;;;;4983744;28;20576;-61
2023/09/15 05:49:46;;;;;;;;;;;23.10;99.90;;;;;;4997658;28;19948;-64
2023/09/15 05:52:11;;;;;;;;;;;23.20;99.90;;;;;;4997024;28;19990;-63
2023/09/15 05:54:37;;;;;;;;;;;22.60;99.90;;;;;;4994465;28;19929;-63
2023/09/15 05:57:02;;;;;;;;;;;22.20;99.90;;;;;;4998971;28;19989;-61
2023/09/15 05:59:28;;;;;;;;;;;21.50;99.90;;;;;;4994735;28;20342;-61
2023/09/15 06:01:56;;;;;;;;;;;21.50;99.90;;;;;;4999868;28;19991;-61
2023/09/15 06:04:21;;;;;;;;;;;21.80;99.90;;;;;;4998638;28;19909;-61
2023/09/15 06:06:47;;;;;;;;;;;21.50;99.90;;;;;;4999423;28;19948;-61
2023/09/15 06:09:13;;;;;;;;;;;21.50;99.90;;;;;;4981624;28;19947;-61
2023/09/15 06:11:38;;;;;;;;;;;21.40;99.90;;;;;;4998669;28;19917;-61
2023/09/15 06:14:04;;;;;;;;;;;21.60;99.90;;;;;;4998096;28;19967;-61
2023/09/15 06:16:33;;;;;;;;;;;22.40;99.90;;;;;;5000055;28;19912;-61
2023/09/15 06:18:59;;;;;;;;;;;22.50;99.90;;;;;;4993361;28;19952;-61
2023/09/15 06:21:25;;;;;;;;;;;22.50;99.90;;;;;;4998940;28;20459;-61
2023/09/15 06:23:50;;;;;;;;;;;22.70;99.90;;;;;;4979799;28;19913;-61
2023/09/15 06:26:16;;;;;;;;;;;23.00;99.90;;;;;;4998077;28;20000;-60
2023/09/15 06:28:41;;;;;;;;;;;23.40;99.90;;;;;;4998251;28;19924;-61
2023/09/15 06:31:07;;;;;;;;;;;24.40;99.00;;;;;;4993928;28;21396;-61
2023/09/15 06:33:32;;;;;;;;;;;25.20;97.90;;;;;;4998822;28;19913;-67
2023/09/15 06:35:59;;;;;;;;;;;25.90;96.40;;;;;;4980336;28;19909;-62
2023/09/15 06:38:26;;;;;;;;;;;25.70;95.50;;;;;;4994175;28;19960;-62
2023/09/15 06:40:51;;;;;;;;;;;25.90;94.90;;;;;;4997563;28;19909;-64
2023/09/15 06:43:17;;;;;;;;;;;25.10;95.00;;;;;;4997676;28;19925;-63
2023/09/15 06:45:42;;;;;;;;;;;24.80;95.70;;;;;;4998878;28;19909;-64
2023/09/15 06:48:08;;;;;;;;;;;25.10;95.90;;;;;;4997944;28;19960;-64
2023/09/15 06:50:34;;;;;;;;;;;24.60;95.60;;;;;;4977602;28;19917;-63
2023/09/15 06:52:59;;;;;;;;;;;24.50;96.10;;;;;;4997794;28;19996;-64
2023/09/15 06:55:25;;;;;;;;;;;25.70;95.00;;;;;;4998553;28;19909;-63
2023/09/15 06:57:51;;;;;;;;;;;25.60;94.00;;;;;;4997790;28;19967;-64
2023/09/15 07:00:17;;;;;;;;;;;25.40;93.90;;;;;;4998286;28;20776;-65
2023/09/15 07:02:43;;;;;;;;;;;25.40;94.20;;;;;;4998054;28;19959;-65
2023/09/15 07:05:08;;;;;;;;;;;25.50;94.20;;;;;;4997350;28;19979;-64
2023/09/15 07:07:34;;;;;;;;;;;25.20;94.10;;;;;;4998374;28;19968;-64
2023/09/15 07:09:59;;;;;;;;;;;25.00;94.90;;;;;;4999024;28;19913;-64
2023/09/15 07:12:25;;;;;;;;;;;26.10;93.50;;;;;;4999632;28;19916;-65
2023/09/15 07:14:50;;;;;;;;;;;27.40;92.30;;;;;;4998148;28;20040;-68
2023/09/15 07:17:16;;;;;;;;;;;26.40;92.30;;;;;;5000279;28;19944;-69
2023/09/15 07:19:44;;;;;;;;;;;26.30;93.10;;;;;;5004259;28;19904;-68
2023/09/15 07:22:10;;;;;;;;;;;25.10;93.20;;;;;;4996466;28;20332;-68
2023/09/15 07:24:35;;;;;;;;;;;25.60;93.80;;;;;;5004000;28;20390;-68
2023/09/15 07:27:01;;;;;;;;;;;26.50;92.80;;;;;;5001939;28;19968;-71
2023/09/15 07:29:28;;;;;;;;;;;28.30;91.60;;;;;;5006715;28;19917;-68
2023/09/15 07:31:57;;;;;;;;;;;29.10;89.50;;;;;;4998664;28;19905;-66
2023/09/15 07:34:23;;;;;;;;;;;28.20;88.60;;;;;;5001110;28;20090;-65
2023/09/15 07:36:50;;;;;;;;;;;28.30;90.10;;;;;;4999595;28;19956;-66
2023/09/15 07:39:16;;;;;;;;;;;29.60;88.20;;;;;;4984299;28;20295;-66
2023/09/15 07:41:42;;;;;;;;;;;30.40;85.00;;;;;;4996881;28;19905;-66
2023/09/15 07:44:07;;;;;;;;;;;31.00;82.20;;;;;;5001236;28;19914;-67
2023/09/15 07:46:33;;;;;;;;;;;31.90;80.70;;;;;;5002064;28;20430;-68
2023/09/15 07:48:59;;;;;;;;;;;31.60;78.70;;;;;;5000882;28;19928;-66
2023/09/15 07:51:27;;;;;;;;;;;31.10;79.10;;;;;;4999795;28;20364;-75
2023/09/15 07:53:53;;;;;;;;;;;29.90;79.80;;;;;;5000805;28;19909;-76
2023/09/15 07:56:21;;;;;;;;;;;29.60;81.80;;;;;;5001711;28;19914;-76
2023/09/15 07:58:46;;;;;;;;;;;28.40;83.30;;;;;;4981030;28;20585;-75
2023/09/15 08:01:12;;;;;;;;;;;28.30;83.20;;;;;;5001402;28;19912;-75
2023/09/15 08:03:39;;;;;;;;;;;29.00;82.90;;;;;;4998384;28;19913;-75
2023/09/15 08:06:05;;;;;;;;;;;29.20;81.90;;;;;;5000905;28;19940;-74
2023/09/15 08:08:30;;;;;;;;;;;29.80;80.40;;;;;;4998572;28;19916;-75
2023/09/15 08:10:56;;;;;;;;;;;28.60;81.50;;;;;;5002124;28;20348;-75
2023/09/15 08:13:21;;;;;;;;;;;30.20;81.50;;;;;;5003076;28;20383;-73
2023/09/15 08:15:51;;;;;;;;;;;30.20;78.60;;;;;;5003197;28;19920;-74
2023/09/15 08:18:17;;;;;;;;;;;31.00;79.90;;;;;;4984938;28;19996;-74
2023/09/15 08:20:43;;;;;;;;;;;33.80;75.70;;;;;;5001129;28;20512;-75
2023/09/15 08:23:08;;;;;;;;;;;33.90;73.00;;;;;;4996261;28;19920;-75
2023/09/15 08:25:34;;;;;;;;;;;34.00;70.80;;;;;;4985457;28;20420;-75
2023/09/15 08:28:02;;;;;;;;;;;33.20;71.60;;;;;;4999406;28;19980;-75
2023/09/15 08:30:28;;;;;;;;;;;31.60;72.50;;;;;;4998402;28;19959;-74
2023/09/15 08:32:53;;;;;;;;;;;31.60;73.20;;;;;;5001125;28;19913;-74
2023/09/15 08:35:19;;;;;;;;;;;31.80;72.30;;;;;;5000994;28;20009;-75
2023/09/15 08:37:44;;;;;;;;;;;31.50;72.30;;;;;;4999692;28;19925;-74
2023/09/15 08:40:11;;;;;;;;;;;30.70;72.60;;;;;;4995701;28;20281;-74
2023/09/15 08:42:36;;;;;;;;;;;30.30;74.30;;;;;;4999460;28;20387;-75
2023/09/15 08:45:04;;;;;;;;;;;29.60;74.80;;;;;;5000203;28;19993;-75
2023/09/15 08:47:34;;;;;;;;;;;30.20;74.40;;;;;;4993482;28;20032;-75
2023/09/15 08:50:03;;;;;;;;;;;30.60;73.40;;;;;;4984442;28;20299;-74
2023/09/15 08:52:29;;;;;;;;;;;31.80;72.20;;;;;;5000010;28;19916;-74
2023/09/15 08:54:56;;;;;;;;;;;30.20;72.80;;;;;;4997405;28;19917;-78
2023/09/15 08:57:22;;;;;;;;;;;29.50;74.40;;;;;;5003950;28;19909;-73
2023/09/15 08:59:49;;;;;;;;;;;29.40;75.90;;;;;;5000253;28;19920;-72
2023/09/15 09:02:15;;;;;;;;;;;29.20;76.40;;;;;;4997438;28;19905;-73
2023/09/15 09:04:41;;;;;;;;;;;30.30;75.20;;;;;;5003870;28;20317;-73
2023/09/15 09:07:07;;;;;;;;;;;31.90;72.90;;;;;;5001226;28;19975;-74
2023/09/15 09:09:33;;;;;;;;;;;31.70;72.30;;;;;;4984308;28;20011;-74
2023/09/15 09:11:59;;;;;;;;;;;31.20;72.80;;;;;;5003111;28;20051;-73
2023/09/15 09:14:24;;;;;;;;;;;29.70;74.60;;;;;;4979484;28;19984;-73
2023/09/15 09:16:52;;;;;;;;;;;29.90;74.80;;;;;;4987118;28;19914;-74
2023/09/15 09:19:17;;;;;;;;;;;29.90;74.50;;;;;;5001054;28;20589;-73
2023/09/15 09:21:44;;;;;;;;;;;28.60;75.40;;;;;;5001924;28;19905;-74
2023/09/15 09:24:10;;;;;;;;;;;27.80;77.20;;;;;;5003022;28;20384;-74
2023/09/15 09:26:36;;;;;;;;;;;29.20;76.80;;;;;;4997092;28;20094;-74
2023/09/15 09:29:02;;;;;;;;;;;30.90;74.90;;;;;;5003057;28;19906;-74
2023/09/15 09:31:28;;;;;;;;;;;30.00;75.30;;;;;;4995725;28;19988;-74
2023/09/15 09:33:54;;;;;;;;;;;29.90;76.10;;;;;;5002075;28;20338;-73
2023/09/15 09:36:20;;;;;;;;;;;30.30;75.30;;;;;;5001355;28;19951;-74
2023/09/15 09:38:46;;;;;;;;;;;32.20;74.20;;;;;;5001161;28;19905;-73
2023/09/15 09:41:13;;;;;;;;;;;33.20;72.30;;;;;;4982960;28;20543;-74
2023/09/15 09:43:39;;;;;;;;;;;34.30;70.50;;;;;;5001571;28;19913;-73
2023/09/15 09:46:06;;;;;;;;;;;33.60;69.50;;;;;;5001318;28;20284;-73
2023/09/15 09:48:38;;;;;;;;;;;33.50;70.60;;;;;;4996640;28;20463;-72
2023/09/15 09:51:05;;;;;;;;;;;33.30;70.50;;;;;;5000802;28;20576;-73
2023/09/15 09:53:34;;;;;;;;;;;33.90;69.70;;;;;;4997480;28;19909;-73
2023/09/15 09:56:00;;;;;;;;;;;34.30;68.50;;;;;;5001305;28;19913;-72
2023/09/15 09:58:26;;;;;;;;;;;32.80;68.50;;;;;;4996465;28;19913;-73
2023/09/15 10:00:52;;;;;;;;;;;33.00;68.40;;;;;;5002177;28;19913;-74
2023/09/15 10:03:18;;;;;;;;;;;32.70;68.70;;;;;;5000183;28;20480;-73
2023/09/15 10:05:44;;;;;;;;;;;33.00;67.50;;;;;;4996960;28;20301;-73
2023/09/15 10:08:10;;;;;;;;;;;33.40;67.10;;;;;;5000274;28;19925;-73
2023/09/15 10:10:41;;;;;;;;;;;34.00;67.20;;;;;;4997669;28;19932;-73
2023/09/15 10:13:08;;;;;;;;;;;32.40;67.50;;;;;;5001445;28;20016;-74
2023/09/15 10:15:43;;;;;;;;;;;30.60;68.30;;;;;;4997159;28;19963;-73
2023/09/15 10:18:12;;;;;;;;;;;29.10;70.20;;;;;;5000630;28;19909;-76
2023/09/15 10:20:38;;;;;;;;;;;28.80;70.60;;;;;;5003656;28;20067;-73
2023/09/15 10:23:05;;;;;;;;;;;27.70;71.30;;;;;;5000765;28;19913;-73
2023/09/15 10:26:00;;;;;;;;;;;26.90;74.00;;;;;;4997089;28;19913;-73
2023/09/15 10:28:26;;;;;;;;;;;25.60;76.60;;;;;;4980467;28;19909;-73
2023/09/15 10:30:55;;;;;;;;;;;27.40;74.60;;;;;;5001774;28;19933;-74
2023/09/15 10:33:28;;;;;;;;;;;29.20;72.10;;;;;;4999216;28;19905;-74
2023/09/15 10:36:04;;;;;;;;;;;29.00;71.80;;;;;;5002641;28;20016;-73
2023/09/15 10:38:30;;;;;;;;;;;30.40;70.80;;;;;;5000209;28;19916;-73
2023/09/15 10:40:58;;;;;;;;;;;33.00;67.30;;;;;;4998780;28;19909;-74
2023/09/15 10:43:23;;;;;;;;;;;34.30;64.20;;;;;;5001748;28;20284;-75
2023/09/15 10:46:07;;;;;;;;;;;33.80;63.60;;;;;;4999305;28;19917;-73
2023/09/15 10:48:36;;;;;;;;;;;33.90;64.00;;;;;;4998099;28;20367;-74
2023/09/15 10:51:05;;;;;;;;;;;34.00;63.60;;;;;;4981535;28;19909;-73
2023/09/15 10:53:41;;;;;;;;;;;32.60;64.20;;;;;;5000356;28;19912;-74
2023/09/15 10:56:07;;;;;;;;;;;32.70;64.60;;;;;;5004393;28;19918;-74
2023/09/15 10:58:32;;;;;;;;;;;30.60;64.00;;;;;;4999985;28;20457;-74
2023/09/15 11:00:58;;;;;;;;;;;28.60;66.30;;;;;;5008972;28;19909;-74
2023/09/15 11:03:24;;;;;;;;;;;27.40;71.10;;;;;;5005988;28;19909;-75
2023/09/15 11:05:52;;;;;;;;;;;27.00;73.40;;;;;;5002777;28;20504;-76
2023/09/15 11:08:18;;;;;;;;;;;27.10;72.90;;;;;;5001913;28;19956;-75
2023/09/15 11:10:43;;;;;;;;;;;26.70;73.60;;;;;;4987217;28;20256;-78
2023/09/15 11:13:09;;;;;;;;;;;26.50;74.10;;;;;;5000410;28;19913;-76
2023/09/15 11:15:35;;;;;;;;;;;25.50;76.30;;;;;;4988672;28;20347;-76
2023/09/15 11:18:01;;;;;;;;;;;25.10;78.10;;;;;;5000706;28;19913;-77
2023/09/15 11:20:27;;;;;;;;;;;24.60;79.10;;;;;;4987068;28;19928;-75
2023/09/15 11:22:56;;;;;;;;;;;24.60;80.20;;;;;;5004022;28;20351;-76
2023/09/15 11:25:22;;;;;;;;;;;24.90;78.60;;;;;;5004422;28;19959;-76
2023/09/15 11:27:48;;;;;;;;;;;25.90;76.30;;;;;;4987716;28;19956;-77
2023/09/15 11:30:14;;;;;;;;;;;26.10;77.20;;;;;;5004254;28;19905;-77
2023/09/15 11:32:39;;;;;;;;;;;26.20;75.60;;;;;;4999632;28;19920;-78
2023/09/15 11:35:09;;;;;;;;;;;26.00;76.40;;;;;;5005894;28;19996;-76
2023/09/15 11:37:35;;;;;;;;;;;25.50;77.00;;;;;;5000811;28;19909;-76
2023/09/15 11:40:00;;;;;;;;;;;25.40;76.50;;;;;;5003265;28;20115;-78
2023/09/15 11:42:26;;;;;;;;;;;25.30;76.40;;;;;;5002248;28;20364;-78
2023/09/15 11:44:52;;;;;;;;;;;25.30;77.60;;;;;;5002325;28;19924;-77
2023/09/15 11:47:18;;;;;;;;;;;25.60;76.00;;;;;;4985326;28;19917;-76
2023/09/15 11:49:44;;;;;;;;;;;25.80;76.20;;;;;;5004865;28;19905;-78
2023/09/15 11:52:10;;;;;;;;;;;25.70;76.60;;;;;;5000343;28;19920;-77
2023/09/15 11:54:35;;;;;;;;;;;25.80;77.00;;;;;;5002133;28;19905;-76
2023/09/15 11:57:01;;;;;;;;;;;26.10;76.60;;;;;;5003645;28;19912;-76
2023/09/15 11:59:27;;;;;;;;;;;26.40;75.70;;;;;;5003315;28;19912;-74
2023/09/15 12:01:54;;;;;;;;;;;26.60;74.60;;;;;;5007470;28;19940;-74
2023/09/15 12:04:20;;;;;;;;;;;26.90;74.40;;;;;;5000200;28;19914;-76
2023/09/15 12:06:46;;;;;;;;;;;27.20;73.60;;;;;;4984523;28;20526;-76
2023/09/15 12:09:13;;;;;;;;;;;27.50;73.30;;;;;;5002926;28;19990;-74
2023/09/15 12:11:44;;;;;;;;;;;27.80;73.30;;;;;;5003444;28;19971;-77
2023/09/15 12:14:11;;;;;;;;;;;27.80;73.00;;;;;;4985049;28;19963;-76
2023/09/15 12:16:37;;;;;;;;;;;27.70;71.90;;;;;;5001836;28;19999;-76
2023/09/15 12:19:04;;;;;;;;;;;27.60;72.40;;;;;;4981936;28;20306;-76
2023/09/15 12:21:30;;;;;;;;;;;27.20;72.90;;;;;;5004120;28;19913;-76
2023/09/15 12:24:06;;;;;;;;;;;27.00;72.80;;;;;;5003084;28;19987;-75
2023/09/15 12:26:32;;;;;;;;;;;27.00;73.50;;;;;;4996883;28;19914;-76
2023/09/15 12:28:58;;;;;;;;;;;26.60;74.80;;;;;;5002320;28;19909;-75
2023/09/15 12:31:24;;;;;;;;;;;26.00;76.00;;;;;;5002220;28;19949;-75
2023/09/15 12:33:54;;;;;;;;;;;25.30;76.70;;;;;;4985563;28;20392;-73
2023/09/15 12:36:19;;;;;;;;;;;24.90;77.30;;;;;;5000849;28;20502;-75
2023/09/15 12:38:45;;;;;;;;;;;24.70;78.50;;;;;;5003038;28;19960;-76
2023/09/15 12:41:11;;;;;;;;;;;24.20;78.70;;;;;;4998954;28;19975;-74
2023/09/15 12:43:37;;;;;;;;;;;24.50;79.30;;;;;;4986132;28;19905;-76
2023/09/15 12:46:03;;;;;;;;;;;25.00;78.80;;;;;;4985827;28;19910;-75
2023/09/15 12:48:29;;;;;;;;;;;25.10;77.90;;;;;;4998957;28;19913;-74
2023/09/15 12:50:55;;;;;;;;;;;25.30;77.40;;;;;;4999224;28;20066;-73
2023/09/15 12:53:21;;;;;;;;;;;25.10;77.60;;;;;;5001928;28;19909;-77
2023/09/15 12:55:46;;;;;;;;;;;25.00;78.60;;;;;;5002519;28;19955;-75
2023/09/15 12:58:12;;;;;;;;;;;25.20;78.60;;;;;;4984236;28;19909;-77
2023/09/15 13:00:37;;;;;;;;;;;25.10;78.30;;;;;;4998076;28;20040;-74
2023/09/15 13:03:03;;;;;;;;;;;25.10;78.70;;;;;;5003082;28;19940;-76
2023/09/15 13:05:29;;;;;;;;;;;25.20;77.40;;;;;;4997798;28;19917;-76
2023/09/15 13:07:54;;;;;;;;;;;25.10;77.80;;;;;;5000317;28;19912;-76
2023/09/15 13:10:20;;;;;;;;;;;25.10;77.90;;;;;;5001727;28;19967;-76
2023/09/15 13:12:46;;;;;;;;;;;25.00;77.60;;;;;;5003263;28;19951;-76
2023/09/15 13:15:11;;;;;;;;;;;25.20;78.00;;;;;;5000056;28;20322;-76
2023/09/15 13:17:38;;;;;;;;;;;25.30;78.20;;;;;;4985278;28;21383;-76
2023/09/15 13:20:06;;;;;;;;;;;24.90;78.80;;;;;;5001860;28;19909;-77
2023/09/15 13:22:33;;;;;;;;;;;25.10;77.90;;;;;;5006302;28;19906;-77
2023/09/15 13:24:59;;;;;;;;;;;25.20;77.40;;;;;;4998431;28;20195;-75
2023/09/15 13:27:25;;;;;;;;;;;25.20;77.40;;;;;;5001750;28;19964;-75
2023/09/15 13:29:51;;;;;;;;;;;25.10;77.30;;;;;;4984444;28;20252;-76
2023/09/15 13:32:16;;;;;;;;;;;25.50;77.30;;;;;;4998303;28;19913;-76
2023/09/15 13:34:42;;;;;;;;;;;25.70;76.10;;;;;;4985022;28;20303;-76
2023/09/15 13:37:08;;;;;;;;;;;25.60;77.00;;;;;;5006508;28;20024;-75
2023/09/15 13:39:35;;;;;;;;;;;25.40;77.00;;;;;;5002675;28;19909;-74
2023/09/15 13:42:01;;;;;;;;;;;24.90;78.30;;;;;;5001913;28;19967;-75
2023/09/15 13:44:27;;;;;;;;;;;24.80;79.40;;;;;;5001531;28;19945;-75
2023/09/15 13:46:53;;;;;;;;;;;24.90;78.60;;;;;;5002171;28;19910;-77
2023/09/15 13:49:19;;;;;;;;;;;24.80;78.70;;;;;;4995941;28;20277;-74
2023/09/15 13:51:44;;;;;;;;;;;24.90;79.50;;;;;;5004897;28;19905;-76
2023/09/15 13:54:10;;;;;;;;;;;24.70;79.80;;;;;;4995859;28;20551;-76
2023/09/15 13:56:36;;;;;;;;;;;24.50;80.00;;;;;;4983246;28;20433;-76
2023/09/15 13:59:03;;;;;;;;;;;24.50;80.70;;;;;;4997599;28;19906;-76
2023/09/15 14:01:30;;;;;;;;;;;24.60;80.40;;;;;;5000775;28;20467;-76
2023/09/15 14:03:57;;;;;;;;;;;24.80;80.30;;;;;;4983066;28;19916;-73
2023/09/15 14:06:23;;;;;;;;;;;25.00;79.40;;;;;;4997132;28;19913;-75
2023/09/15 14:08:49;;;;;;;;;;;25.00;79.60;;;;;;4999937;28;19913;-74
2023/09/15 14:11:14;;;;;;;;;;;24.90;79.40;;;;;;4999044;28;19912;-76